Ghotki Weather



Ghotki's Current Weather

Temprature 23o haze

haze

Rain: 0 %

Min Temprature23o
Max Temprature23o
Humidity25
Wind Speed2.16 m/h
Sun Rise06:53:23
Sun Set18:19:07
Current Time: 23-Feb-2019 15:43:12
Lat/Lon: 28.01, 69.32




Ghotki's Geo Location




Ghotki's Weather Forecast

Time Overall Temp Min Temp Max Temp Humidity Wind Speed Rain
23-Feb-2019 (Sat)
17:00:00 broken clouds 22.880 22.549 22.880 57 2.16 m/h 0 %
20:00:00 clear sky 18.010 17.759 18.010 61 1.87 m/h 0 %
23:00:00 few clouds 15.380 15.215 15.380 73 2.37 m/h 0 %
24-Feb-2019 (Sun)
02:00:00 clear sky 13.640 13.560 13.640 81 1.41 m/h 0 %
05:00:00 clear sky 12.442 12.442 12.442 86 1.31 m/h 0 %
08:00:00 clear sky 13.453 13.453 13.453 85 1.51 m/h 0 %
11:00:00 clear sky 21.124 21.124 21.124 88 2.21 m/h 0 %
14:00:00 clear sky 23.181 23.181 23.181 75 2.67 m/h 0 %
17:00:00 clear sky 22.721 22.721 22.721 56 1.85 m/h 0 %
20:00:00 clear sky 16.968 16.968 16.968 57 0.96 m/h 0 %
23:00:00 clear sky 14.561 14.561 14.561 67 2.86 m/h 0 %
25-Feb-2019 (Mon)
02:00:00 clear sky 12.705 12.705 12.705 70 2.32 m/h 0 %
05:00:00 scattered clouds 11.677 11.677 11.677 66 1.31 m/h 0 %
08:00:00 few clouds 13.245 13.245 13.245 65 2.22 m/h 0 %
11:00:00 clear sky 17.947 17.947 17.947 81 3.06 m/h 0 %
14:00:00 clear sky 20.773 20.773 20.773 74 2.97 m/h 0 %
17:00:00 clear sky 21.037 21.037 21.037 57 2.01 m/h 0 %
20:00:00 broken clouds 16.323 16.323 16.323 62 1.51 m/h 0 %
23:00:00 broken clouds 13.992 13.992 13.992 77 2.51 m/h 0 %
26-Feb-2019 (Tue)
02:00:00 few clouds 13.226 13.226 13.226 83 3.41 m/h 0 %
05:00:00 few clouds 12.797 12.797 12.797 85 3.61 m/h 0 %
08:00:00 clear sky 12.807 12.807 12.807 89 4.67 m/h 0 %
11:00:00 clear sky 17.392 17.392 17.392 87 4.52 m/h 0 %
14:00:00 clear sky 19.771 19.771 19.771 80 2.11 m/h 0 %
17:00:00 clear sky 20.139 20.139 20.139 59 1.91 m/h 0 %
20:00:00 clear sky 15.511 15.511 15.511 56 1.47 m/h 0 %
23:00:00 clear sky 12.898 12.898 12.898 64 2.12 m/h 0 %
27-Feb-2019 (Wed)
02:00:00 clear sky 11.506 11.506 11.506 75 2.86 m/h 0 %
05:00:00 clear sky 10.169 10.169 10.169 83 2.15 m/h 0 %
08:00:00 clear sky 10.940 10.940 10.940 65 1.82 m/h 0 %
11:00:00 clear sky 18.870 18.870 18.870 80 2.06 m/h 0 %
14:00:00 clear sky 21.311 21.311 21.311 68 2.05 m/h 0 %
17:00:00 clear sky 21.223 21.223 21.223 50 2.11 m/h 0 %
20:00:00 clear sky 15.917 15.917 15.917 48 2.67 m/h 0 %
23:00:00 broken clouds 13.566 13.566 13.566 58 2.92 m/h 0 %
28-Feb-2019 (Thu)
02:00:00 scattered clouds 12.866 12.866 12.866 57 3.76 m/h 0 %
05:00:00 scattered clouds 12.238 12.238 12.238 61 3.81 m/h 0 %
08:00:00 scattered clouds 12.440 12.440 12.440 67 5.46 m/h 0 %
11:00:00 scattered clouds 17.347 17.347 17.347 77 4.61 m/h 0 %
14:00:00 scattered clouds 19.129 19.129 19.129 69 4.82 m/h 0 %

Famous Cities (60)